sensor_id;sensor_type;location;lat;lon;timestamp;pressure;altitude;pressure_sealevel;temperature;humidity
14612;BME280;7392;52.078;11.650;2022-08-03T00:02:17;100928.28;;;19.67;57.72
14612;BME280;7392;52.078;11.650;2022-08-03T00:04:46;100920.16;;;19.69;57.80
14612;BME280;7392;52.078;11.650;2022-08-03T00:07:14;100917.41;;;19.70;57.85
14612;BME280;7392;52.078;11.650;2022-08-03T00:09:43;100925.44;;;19.72;58.11
14612;BME280;7392;52.078;11.650;2022-08-03T00:12:11;100918.16;;;19.74;58.29
14612;BME280;7392;52.078;11.650;2022-08-03T00:14:40;100915.47;;;19.75;58.55
14612;BME280;7392;52.078;11.650;2022-08-03T00:17:10;100914.53;;;19.76;58.69
14612;BME280;7392;52.078;11.650;2022-08-03T00:19:38;100913.63;;;19.76;58.57
14612;BME280;7392;52.078;11.650;2022-08-03T00:22:06;100910.06;;;19.75;58.26
14612;BME280;7392;52.078;11.650;2022-08-03T00:24:34;100906.56;;;19.72;58.22
14612;BME280;7392;52.078;11.650;2022-08-03T00:27:03;100905.72;;;19.71;58.24
14612;BME280;7392;52.078;11.650;2022-08-03T00:29:31;100905.66;;;19.73;58.45
14612;BME280;7392;52.078;11.650;2022-08-03T00:32:21;100902.00;;;19.74;58.79
14612;BME280;7392;52.078;11.650;2022-08-03T00:34:50;100909.19;;;19.75;59.06
14612;BME280;7392;52.078;11.650;2022-08-03T00:37:24;100909.16;;;19.76;59.07
14612;BME280;7392;52.078;11.650;2022-08-03T00:40:09;100911.84;;;19.76;59.14
14612;BME280;7392;52.078;11.650;2022-08-03T00:42:46;100904.69;;;19.75;58.90
14612;BME280;7392;52.078;11.650;2022-08-03T00:45:14;100907.38;;;19.75;58.54
14612;BME280;7392;52.078;11.650;2022-08-03T00:47:44;100909.09;;;19.78;58.89
14612;BME280;7392;52.078;11.650;2022-08-03T00:50:12;100898.31;;;19.78;59.12
14612;BME280;7392;52.078;11.650;2022-08-03T00:52:41;100901.88;;;19.78;58.96
14612;BME280;7392;52.078;11.650;2022-08-03T00:55:10;100898.22;;;19.79;58.93
14612;BME280;7392;52.078;11.650;2022-08-03T00:57:38;100902.75;;;19.79;59.13
14612;BME280;7392;52.078;11.650;2022-08-03T01:00:08;100909.97;;;19.78;59.21
14612;BME280;7392;52.078;11.650;2022-08-03T01:02:38;100900.03;;;19.79;59.52
14612;BME280;7392;52.078;11.650;2022-08-03T01:05:08;100908.19;;;19.77;59.56
14612;BME280;7392;52.078;11.650;2022-08-03T01:07:45;100902.75;;;19.79;59.74
14612;BME280;7392;52.078;11.650;2022-08-03T01:10:20;100899.19;;;19.78;59.92
14612;BME280;7392;52.078;11.650;2022-08-03T01:12:57;100897.34;;;19.79;60.06
14612;BME280;7392;52.078;11.650;2022-08-03T01:15:32;100901.00;;;19.78;59.92
14612;BME280;7392;52.078;11.650;2022-08-03T01:18:08;100898.38;;;19.76;60.00
14612;BME280;7392;52.078;11.650;2022-08-03T01:20:43;100900.16;;;19.76;60.02
14612;BME280;7392;52.078;11.650;2022-08-03T01:23:41;100894.72;;;19.77;60.00
14612;BME280;7392;52.078;11.650;2022-08-03T01:26:40;100892.03;;;19.77;59.97
14612;BME280;7392;52.078;11.650;2022-08-03T01:29:30;100887.66;;;19.75;59.93
14612;BME280;7392;52.078;11.650;2022-08-03T01:32:02;100890.34;;;19.73;59.83
14612;BME280;7392;52.078;11.650;2022-08-03T01:34:57;100893.94;;;19.74;60.08
14612;BME280;7392;52.078;11.650;2022-08-03T01:37:31;100894.88;;;19.73;60.37
14612;BME280;7392;52.078;11.650;2022-08-03T01:40:05;100889.59;;;19.70;60.59
14612;BME280;7392;52.078;11.650;2022-08-03T01:42:35;100891.38;;;19.69;60.77
14612;BME280;7392;52.078;11.650;2022-08-03T01:45:06;100887.88;;;19.67;60.87
14612;BME280;7392;52.078;11.650;2022-08-03T01:47:35;100885.31;;;19.64;60.98
14612;BME280;7392;52.078;11.650;2022-08-03T01:50:06;100883.66;;;19.60;61.23
14612;BME280;7392;52.078;11.650;2022-08-03T01:52:36;100890.03;;;19.57;61.47
14612;BME280;7392;52.078;11.650;2022-08-03T01:55:08;100887.47;;;19.54;61.61
14612;BME280;7392;52.078;11.650;2022-08-03T01:57:37;100887.59;;;19.51;61.88
14612;BME280;7392;52.078;11.650;2022-08-03T02:00:27;100892.22;;;19.48;62.08
14612;BME280;7392;52.078;11.650;2022-08-03T02:02:57;100889.63;;;19.44;62.38
14612;BME280;7392;52.078;11.650;2022-08-03T02:05:25;100885.22;;;19.42;62.73
14612;BME280;7392;52.078;11.650;2022-08-03T02:07:55;100890.69;;;19.40;63.37
14612;BME280;7392;52.078;11.650;2022-08-03T02:10:25;100888.91;;;19.39;64.00
14612;BME280;7392;52.078;11.650;2022-08-03T02:13:03;100891.66;;;19.38;64.02
14612;BME280;7392;52.078;11.650;2022-08-03T02:15:35;100889.91;;;19.37;64.67
14612;BME280;7392;52.078;11.650;2022-08-03T02:18:05;100891.66;;;19.38;64.94
14612;BME280;7392;52.078;11.650;2022-08-03T02:20:35;100891.78;;;19.35;65.21
14612;BME280;7392;52.078;11.650;2022-08-03T02:23:05;100887.41;;;19.32;64.82
14612;BME280;7392;52.078;11.650;2022-08-03T02:25:34;100892.94;;;19.28;64.79
14612;BME280;7392;52.078;11.650;2022-08-03T02:28:07;100892.13;;;19.25;64.44
14612;BME280;7392;52.078;11.650;2022-08-03T02:30:41;100890.41;;;19.23;64.25
14612;BME280;7392;52.078;11.650;2022-08-03T02:33:17;100888.72;;;19.20;63.73
14612;BME280;7392;52.078;11.650;2022-08-03T02:35:46;100892.44;;;19.16;63.50
14612;BME280;7392;52.078;11.650;2022-08-03T02:38:18;100889.81;;;19.15;63.34
14612;BME280;7392;52.078;11.650;2022-08-03T02:40:49;100891.66;;;19.13;63.48
14612;BME280;7392;52.078;11.650;2022-08-03T02:43:20;100877.38;;;19.11;63.47
14612;BME280;7392;52.078;11.650;2022-08-03T02:45:52;100875.75;;;19.06;63.26
14612;BME280;7392;52.078;11.650;2022-08-03T02:48:24;100882.09;;;19.04;63.17
14612;BME280;7392;52.078;11.650;2022-08-03T02:50:54;100884.91;;;19.01;63.00
14612;BME280;7392;52.078;11.650;2022-08-03T02:53:25;100891.22;;;19.00;63.09
14612;BME280;7392;52.078;11.650;2022-08-03T02:55:54;100885.09;;;18.96;63.30
14612;BME280;7392;52.078;11.650;2022-08-03T02:58:23;100880.66;;;18.94;63.26
14612;BME280;7392;52.078;11.650;2022-08-03T03:00:54;100887.97;;;18.90;63.32
14612;BME280;7392;52.078;11.650;2022-08-03T03:03:23;100884.47;;;18.88;63.74
14612;BME280;7392;52.078;11.650;2022-08-03T03:05:57;100881.88;;;18.85;63.77
14612;BME280;7392;52.078;11.650;2022-08-03T03:08:31;100885.63;;;18.79;63.82
14612;BME280;7392;52.078;11.650;2022-08-03T03:11:00;100886.78;;;18.72;64.27
14612;BME280;7392;52.078;11.650;2022-08-03T03:13:29;100884.38;;;18.63;64.67
14612;BME280;7392;52.078;11.650;2022-08-03T03:16:02;100886.28;;;18.59;65.17
14612;BME280;7392;52.078;11.650;2022-08-03T03:18:32;100881.91;;;18.57;65.52
14612;BME280;7392;52.078;11.650;2022-08-03T03:21:02;100883.75;;;18.55;65.70
14612;BME280;7392;52.078;11.650;2022-08-03T03:23:30;100885.63;;;18.53;66.05
14612;BME280;7392;52.078;11.650;2022-08-03T03:26:02;100892.00;;;18.50;66.25
14612;BME280;7392;52.078;11.650;2022-08-03T03:28:30;100884.88;;;18.47;66.38
14612;BME280;7392;52.078;11.650;2022-08-03T03:31:00;100888.56;;;18.45;66.57
14612;BME280;7392;52.078;11.650;2022-08-03T03:33:28;100885.03;;;18.43;66.76
14612;BME280;7392;52.078;11.650;2022-08-03T03:35:57;100888.75;;;18.39;66.55
14612;BME280;7392;52.078;11.650;2022-08-03T03:38:25;100893.31;;;18.37;66.97
14612;BME280;7392;52.078;11.650;2022-08-03T03:40:53;100884.47;;;18.33;67.09
14612;BME280;7392;52.078;11.650;2022-08-03T03:43:22;100884.56;;;18.30;67.20
14612;BME280;7392;52.078;11.650;2022-08-03T03:45:51;100898.09;;;18.27;67.31
14612;BME280;7392;52.078;11.650;2022-08-03T03:48:20;100884.75;;;18.24;67.76
14612;BME280;7392;52.078;11.650;2022-08-03T03:50:48;100889.28;;;18.22;67.94
14612;BME280;7392;52.078;11.650;2022-08-03T03:53:16;100884.00;;;18.19;68.04
14612;BME280;7392;52.078;11.650;2022-08-03T03:55:44;100884.19;;;18.14;68.25
14612;BME280;7392;52.078;11.650;2022-08-03T03:58:29;100881.63;;;18.09;68.26
14612;BME280;7392;52.078;11.650;2022-08-03T04:00:57;100881.66;;;18.08;68.39
14612;BME280;7392;52.078;11.650;2022-08-03T04:03:26;100879.06;;;18.05;68.39
14612;BME280;7392;52.078;11.650;2022-08-03T04:05:54;100881.81;;;18.03;68.51
14612;BME280;7392;52.078;11.650;2022-08-03T04:08:54;100886.34;;;18.01;68.83
14612;BME280;7392;52.078;11.650;2022-08-03T04:11:45;100881.03;;;18.00;68.94
14612;BME280;7392;52.078;11.650;2022-08-03T04:14:17;100882.84;;;17.99;69.02
14612;BME280;7392;52.078;11.650;2022-08-03T04:16:48;100889.13;;;17.98;69.30
14612;BME280;7392;52.078;11.650;2022-08-03T04:19:22;100878.41;;;17.97;69.21
14612;BME280;7392;52.078;11.650;2022-08-03T04:21:54;100886.53;;;17.95;69.46
14612;BME280;7392;52.078;11.650;2022-08-03T04:24:26;100887.56;;;17.91;69.43
14612;BME280;7392;52.078;11.650;2022-08-03T04:26:58;100885.00;;;17.86;70.09
14612;BME280;7392;52.078;11.650;2022-08-03T04:29:28;100898.53;;;17.83;70.31
14612;BME280;7392;52.078;11.650;2022-08-03T04:31:59;100899.47;;;17.81;70.32
14612;BME280;7392;52.078;11.650;2022-08-03T04:34:30;100894.19;;;17.77;70.38
14612;BME280;7392;52.078;11.650;2022-08-03T04:36:59;100892.50;;;17.75;70.17
14612;BME280;7392;52.078;11.650;2022-08-03T04:39:30;100898.78;;;17.74;70.31
14612;BME280;7392;52.078;11.650;2022-08-03T04:42:02;100896.13;;;17.72;70.60
14612;BME280;7392;52.078;11.650;2022-08-03T04:44:35;100901.50;;;17.72;70.43
14612;BME280;7392;52.078;11.650;2022-08-03T04:47:04;100896.09;;;17.74;70.62
14612;BME280;7392;52.078;11.650;2022-08-03T04:49:34;100901.38;;;17.77;70.59
14612;BME280;7392;52.078;11.650;2022-08-03T04:52:03;100907.53;;;17.81;70.33
14612;BME280;7392;52.078;11.650;2022-08-03T04:54:38;100898.44;;;17.85;70.32
14612;BME280;7392;52.078;11.650;2022-08-03T04:57:06;100905.59;;;17.87;70.08
14612;BME280;7392;52.078;11.650;2022-08-03T04:59:35;100901.00;;;17.91;69.97
14612;BME280;7392;52.078;11.650;2022-08-03T05:02:06;100907.09;;;17.96;70.10
14612;BME280;7392;52.078;11.650;2022-08-03T05:04:35;100904.25;;;18.02;70.22
14612;BME280;7392;52.078;11.650;2022-08-03T05:07:06;100909.44;;;18.07;69.99
14612;BME280;7392;52.078;11.650;2022-08-03T05:09:38;100915.63;;;18.10;70.27
14612;BME280;7392;52.078;11.650;2022-08-03T05:12:18;100909.19;;;18.16;69.95
14612;BME280;7392;52.078;11.650;2022-08-03T05:14:46;100910.78;;;18.22;69.75
14612;BME280;7392;52.078;11.650;2022-08-03T05:17:14;100909.75;;;18.26;69.81
14612;BME280;7392;52.078;11.650;2022-08-03T05:19:43;100910.44;;;18.32;69.71
14612;BME280;7392;52.078;11.650;2022-08-03T05:22:11;100907.56;;;18.39;69.57
14612;BME280;7392;52.078;11.650;2022-08-03T05:24:39;100909.13;;;18.46;69.66
14612;BME280;7392;52.078;11.650;2022-08-03T05:27:07;100910.75;;;18.52;69.98
14612;BME280;7392;52.078;11.650;2022-08-03T05:29:34;100915.00;;;18.59;70.14
14612;BME280;7392;52.078;11.650;2022-08-03T05:32:03;100911.94;;;18.69;70.62
14612;BME280;7392;52.078;11.650;2022-08-03T05:34:34;100916.19;;;18.77;70.62
14612;BME280;7392;52.078;11.650;2022-08-03T05:37:03;100916.78;;;18.86;70.58
14612;BME280;7392;52.078;11.650;2022-08-03T05:39:31;100917.41;;;18.95;70.19
14612;BME280;7392;52.078;11.650;2022-08-03T05:41:59;100910.84;;;19.03;70.02
14612;BME280;7392;52.078;11.650;2022-08-03T05:44:27;100909.59;;;19.14;69.74
14612;BME280;7392;52.078;11.650;2022-08-03T05:46:56;100913.75;;;19.22;69.39
14612;BME280;7392;52.078;11.650;2022-08-03T05:49:24;100909.81;;;19.33;68.81
14612;BME280;7392;52.078;11.650;2022-08-03T05:51:52;100904.16;;;19.40;68.51
14612;BME280;7392;52.078;11.650;2022-08-03T05:54:40;100918.03;;;19.53;68.08
14612;BME280;7392;52.078;11.650;2022-08-03T05:57:23;100914.06;;;19.63;67.93
14612;BME280;7392;52.078;11.650;2022-08-03T05:59:51;100911.00;;;19.74;67.53
14612;BME280;7392;52.078;11.650;2022-08-03T06:02:23;100909.69;;;19.85;67.44
14612;BME280;7392;52.078;11.650;2022-08-03T06:04:51;100912.06;;;19.94;67.51
14612;BME280;7392;52.078;11.650;2022-08-03T06:07:19;100903.56;;;20.05;67.19
14612;BME280;7392;52.078;11.650;2022-08-03T06:09:48;100903.13;;;20.15;66.71
14612;BME280;7392;52.078;11.650;2022-08-03T06:12:36;100915.22;;;20.27;66.61
14612;BME280;7392;52.078;11.650;2022-08-03T06:15:08;100915.75;;;20.37;66.14
14612;BME280;7392;52.078;11.650;2022-08-03T06:17:44;100905.41;;;20.48;65.37
14612;BME280;7392;52.078;11.650;2022-08-03T06:20:12;100905.03;;;20.58;64.85
14612;BME280;7392;52.078;11.650;2022-08-03T06:22:43;100901.09;;;20.66;64.67
14612;BME280;7392;52.078;11.650;2022-08-03T06:25:18;100899.72;;;20.78;64.49
14612;BME280;7392;52.078;11.650;2022-08-03T06:27:46;100902.78;;;20.91;64.38
14612;BME280;7392;52.078;11.650;2022-08-03T06:30:14;100902.19;;;21.05;64.05
14612;BME280;7392;52.078;11.650;2022-08-03T06:32:47;100904.47;;;21.14;63.76
14612;BME280;7392;52.078;11.650;2022-08-03T06:35:18;100907.66;;;21.24;63.65
14612;BME280;7392;52.078;11.650;2022-08-03T06:37:47;100910.75;;;21.35;63.26
14612;BME280;7392;52.078;11.650;2022-08-03T06:40:18;100906.63;;;21.47;63.24
14612;BME280;7392;52.078;11.650;2022-08-03T06:42:50;100905.28;;;21.57;63.06
14612;BME280;7392;52.078;11.650;2022-08-03T06:45:18;100911.06;;;21.69;62.63
14612;BME280;7392;52.078;11.650;2022-08-03T06:47:46;100907.97;;;21.78;62.46
14612;BME280;7392;52.078;11.650;2022-08-03T06:50:14;100910.22;;;21.87;61.89
14612;BME280;7392;52.078;11.650;2022-08-03T06:52:51;100908.78;;;21.99;61.39
14612;BME280;7392;52.078;11.650;2022-08-03T06:55:20;100910.94;;;22.10;60.79
14612;BME280;7392;52.078;11.650;2022-08-03T06:57:48;100910.34;;;22.22;60.58
14612;BME280;7392;52.078;11.650;2022-08-03T07:00:16;100908.78;;;22.37;59.99
14612;BME280;7392;52.078;11.650;2022-08-03T07:02:44;100912.72;;;22.49;59.71
14612;BME280;7392;52.078;11.650;2022-08-03T07:05:13;100912.88;;;22.63;59.32
14612;BME280;7392;52.078;11.650;2022-08-03T07:07:42;100913.09;;;22.77;57.86
14612;BME280;7392;52.078;11.650;2022-08-03T07:10:10;100904.25;;;22.91;56.98
14612;BME280;7392;52.078;11.650;2022-08-03T07:12:40;100908.91;;;23.07;56.41
14612;BME280;7392;52.078;11.650;2022-08-03T07:15:22;100904.38;;;23.25;55.93
14612;BME280;7392;52.078;11.650;2022-08-03T07:18:10;100904.44;;;23.41;55.51
14612;BME280;7392;52.078;11.650;2022-08-03T07:20:38;100903.69;;;23.55;54.89
14612;BME280;7392;52.078;11.650;2022-08-03T07:23:06;100908.34;;;23.68;53.81
14612;BME280;7392;52.078;11.650;2022-08-03T07:25:37;100908.34;;;23.86;52.81
14612;BME280;7392;52.078;11.650;2022-08-03T07:28:06;100901.88;;;24.04;50.14
14612;BME280;7392;52.078;11.650;2022-08-03T07:30:34;100910.63;;;24.25;48.10
14612;BME280;7392;52.078;11.650;2022-08-03T07:33:02;100903.13;;;24.46;46.75
14612;BME280;7392;52.078;11.650;2022-08-03T07:35:30;100901.88;;;24.68;45.27
14612;BME280;7392;52.078;11.650;2022-08-03T07:37:58;100909.03;;;24.85;44.55
14612;BME280;7392;52.078;11.650;2022-08-03T07:40:26;100907.06;;;25.03;43.97
14612;BME280;7392;52.078;11.650;2022-08-03T07:42:57;100905.78;;;25.25;43.41
14612;BME280;7392;52.078;11.650;2022-08-03T07:45:27;100911.94;;;25.43;42.50
14612;BME280;7392;52.078;11.650;2022-08-03T07:47:54;100912.06;;;25.55;42.88
14612;BME280;7392;52.078;11.650;2022-08-03T07:50:22;100909.25;;;25.71;42.43
14612;BME280;7392;52.078;11.650;2022-08-03T07:52:51;100903.78;;;25.86;42.22
14612;BME280;7392;52.078;11.650;2022-08-03T07:55:23;100908.38;;;26.00;42.00
14612;BME280;7392;52.078;11.650;2022-08-03T07:58:05;100901.84;;;26.17;41.16
14612;BME280;7392;52.078;11.650;2022-08-03T08:00:36;100903.34;;;26.35;41.21
14612;BME280;7392;52.078;11.650;2022-08-03T08:03:04;100902.44;;;26.49;40.35
14612;BME280;7392;52.078;11.650;2022-08-03T08:05:32;100904.16;;;26.64;39.98
14612;BME280;7392;52.078;11.650;2022-08-03T08:08:00;100902.25;;;26.79;40.13
14612;BME280;7392;52.078;11.650;2022-08-03T08:10:29;100915.69;;;26.95;40.00
14612;BME280;7392;52.078;11.650;2022-08-03T08:12:58;100898.41;;;27.09;39.34
14612;BME280;7392;52.078;11.650;2022-08-03T08:15:26;100900.06;;;27.24;39.17
14612;BME280;7392;52.078;11.650;2022-08-03T08:17:58;100904.34;;;27.41;38.86
14612;BME280;7392;52.078;11.650;2022-08-03T08:20:28;100899.56;;;27.58;39.12
14612;BME280;7392;52.078;11.650;2022-08-03T08:22:58;100895.63;;;27.75;39.06
14612;BME280;7392;52.078;11.650;2022-08-03T08:25:29;100892.75;;;27.89;38.37
14612;BME280;7392;52.078;11.650;2022-08-03T08:27:58;100897.13;;;28.05;37.69
14612;BME280;7392;52.078;11.650;2022-08-03T08:30:49;100897.09;;;28.17;36.84
14612;BME280;7392;52.078;11.650;2022-08-03T08:33:18;100897.19;;;28.29;36.90
14612;BME280;7392;52.078;11.650;2022-08-03T08:35:51;100890.91;;;28.40;36.84
14612;BME280;7392;52.078;11.650;2022-08-03T08:38:19;100893.84;;;28.49;36.37
14612;BME280;7392;52.078;11.650;2022-08-03T08:40:47;100889.44;;;28.60;36.24
14612;BME280;7392;52.078;11.650;2022-08-03T08:43:16;100889.72;;;28.68;36.09
14612;BME280;7392;52.078;11.650;2022-08-03T08:45:44;100889.78;;;28.79;36.21
14612;BME280;7392;52.078;11.650;2022-08-03T08:48:12;100889.59;;;28.94;36.35
14612;BME280;7392;52.078;11.650;2022-08-03T08:50:43;100884.88;;;29.07;36.11
14612;BME280;7392;52.078;11.650;2022-08-03T08:53:12;100892.31;;;29.18;35.96
14612;BME280;7392;52.078;11.650;2022-08-03T08:55:46;100891.22;;;29.32;35.72
14612;BME280;7392;52.078;11.650;2022-08-03T08:58:28;100906.03;;;29.40;35.27
14612;BME280;7392;52.078;11.650;2022-08-03T09:00:56;100892.69;;;29.36;35.18
14612;BME280;7392;52.078;11.650;2022-08-03T09:03:24;100892.09;;;29.43;35.44
14612;BME280;7392;52.078;11.650;2022-08-03T09:05:58;100898.47;;;29.55;35.36
14612;BME280;7392;52.078;11.650;2022-08-03T09:08:27;100890.63;;;29.73;35.82
14612;BME280;7392;52.078;11.650;2022-08-03T09:10:55;100897.25;;;29.93;35.90
14612;BME280;7392;52.078;11.650;2022-08-03T09:13:23;100899.59;;;30.09;35.23
14612;BME280;7392;52.078;11.650;2022-08-03T09:16:12;100885.28;;;30.17;35.10
14612;BME280;7392;52.078;11.650;2022-08-03T09:18:42;100883.41;;;30.29;34.61
14612;BME280;7392;52.078;11.650;2022-08-03T09:21:20;100889.59;;;30.31;34.20
14612;BME280;7392;52.078;11.650;2022-08-03T09:24:00;100891.84;;;30.37;33.86
14612;BME280;7392;52.078;11.650;2022-08-03T09:26:32;100884.34;;;30.50;34.25
14612;BME280;7392;52.078;11.650;2022-08-03T09:29:02;100880.72;;;30.61;34.50
14612;BME280;7392;52.078;11.650;2022-08-03T09:31:41;100874.06;;;30.75;34.17
14612;BME280;7392;52.078;11.650;2022-08-03T09:34:11;100865.63;;;30.88;34.31
14612;BME280;7392;52.078;11.650;2022-08-03T09:36:42;100872.44;;;31.05;33.94
14612;BME280;7392;52.078;11.650;2022-08-03T09:39:13;100868.22;;;31.22;33.90
14612;BME280;7392;52.078;11.650;2022-08-03T09:41:42;100872.75;;;31.32;33.54
14612;BME280;7392;52.078;11.650;2022-08-03T09:44:11;100882.66;;;31.45;33.50
14612;BME280;7392;52.078;11.650;2022-08-03T09:46:53;100869.28;;;31.51;32.52
14612;BME280;7392;52.078;11.650;2022-08-03T09:49:21;100871.88;;;31.53;32.67
14612;BME280;7392;52.078;11.650;2022-08-03T09:51:52;100874.09;;;31.59;32.12
14612;BME280;7392;52.078;11.650;2022-08-03T09:54:41;100870.50;;;31.68;32.51
14612;BME280;7392;52.078;11.650;2022-08-03T09:57:20;100864.66;;;31.83;32.54
14612;BME280;7392;52.078;11.650;2022-08-03T09:59:49;100867.13;;;31.86;32.41
14612;BME280;7392;52.078;11.650;2022-08-03T10:02:38;100861.78;;;31.94;31.64
14612;BME280;7392;52.078;11.650;2022-08-03T10:05:09;100864.00;;;32.00;32.05
14612;BME280;7392;52.078;11.650;2022-08-03T10:07:48;100853.94;;;32.11;32.21
14612;BME280;7392;52.078;11.650;2022-08-03T10:10:16;100853.06;;;32.20;32.15
14612;BME280;7392;52.078;11.650;2022-08-03T10:12:58;100856.00;;;32.28;31.74
14612;BME280;7392;52.078;11.650;2022-08-03T10:15:27;100854.13;;;32.29;31.48
14612;BME280;7392;52.078;11.650;2022-08-03T10:18:15;100853.09;;;32.30;31.62
14612;BME280;7392;52.078;11.650;2022-08-03T10:20:45;100857.31;;;32.34;31.02
14612;BME280;7392;52.078;11.650;2022-08-03T10:23:18;100850.34;;;32.30;30.77
14612;BME280;7392;52.078;11.650;2022-08-03T10:25:48;100848.78;;;32.37;31.18
14612;BME280;7392;52.078;11.650;2022-08-03T10:28:19;100848.50;;;32.50;31.27
14612;BME280;7392;52.078;11.650;2022-08-03T10:30:50;100842.03;;;32.60;30.99
14612;BME280;7392;52.078;11.650;2022-08-03T10:33:20;100836.69;;;32.78;30.81
14612;BME280;7392;52.078;11.650;2022-08-03T10:36:12;100831.56;;;33.03;31.28
14612;BME280;7392;52.078;11.650;2022-08-03T10:38:46;100834.59;;;33.29;31.35
14612;BME280;7392;52.078;11.650;2022-08-03T10:41:19;100835.16;;;33.33;30.93
14612;BME280;7392;52.078;11.650;2022-08-03T10:43:50;100839.91;;;33.41;30.50
14612;BME280;7392;52.078;11.650;2022-08-03T10:46:21;100833.94;;;33.55;30.57
14612;BME280;7392;52.078;11.650;2022-08-03T10:48:49;100825.34;;;33.58;29.63
14612;BME280;7392;52.078;11.650;2022-08-03T10:51:19;100832.22;;;33.44;29.90
14612;BME280;7392;52.078;11.650;2022-08-03T10:53:49;100828.44;;;33.45;29.95
14612;BME280;7392;52.078;11.650;2022-08-03T10:56:40;100828.09;;;33.58;29.79
14612;BME280;7392;52.078;11.650;2022-08-03T10:59:58;100822.72;;;33.66;29.37
14612;BME280;7392;52.078;11.650;2022-08-03T11:03:00;100824.19;;;33.61;28.89
14612;BME280;7392;52.078;11.650;2022-08-03T11:05:30;100817.69;;;33.62;29.57
14612;BME280;7392;52.078;11.650;2022-08-03T11:08:19;100807.41;;;33.91;29.95
14612;BME280;7392;52.078;11.650;2022-08-03T11:10:50;100812.47;;;34.14;29.35
14612;BME280;7392;52.078;11.650;2022-08-03T11:13:20;100816.75;;;34.26;28.60
14612;BME280;7392;52.078;11.650;2022-08-03T11:15:53;100811.88;;;34.38;28.33
14612;BME280;7392;52.078;11.650;2022-08-03T11:18:28;100806.44;;;34.46;28.49
14612;BME280;7392;52.078;11.650;2022-08-03T11:20:58;100807.63;;;34.62;28.80
14612;BME280;7392;52.078;11.650;2022-08-03T11:23:41;100798.72;;;34.68;28.38
14612;BME280;7392;52.078;11.650;2022-08-03T11:26:31;100792.94;;;34.71;28.73
14612;BME280;7392;52.078;11.650;2022-08-03T11:29:26;100800.16;;;34.72;28.19
14612;BME280;7392;52.078;11.650;2022-08-03T11:31:55;100797.22;;;34.92;28.81
14612;BME280;7392;52.078;11.650;2022-08-03T11:34:24;100808.50;;;35.07;28.08
14612;BME280;7392;52.078;11.650;2022-08-03T11:37:22;100805.81;;;35.15;27.66
14612;BME280;7392;52.078;11.650;2022-08-03T11:39:58;100808.88;;;35.12;26.95
14612;BME280;7392;52.078;11.650;2022-08-03T11:42:42;100804.63;;;35.17;27.50
14612;BME280;7392;52.078;11.650;2022-08-03T11:45:13;100801.66;;;35.37;27.51
14612;BME280;7392;52.078;11.650;2022-08-03T11:47:41;100802.34;;;35.65;28.46
14612;BME280;7392;52.078;11.650;2022-08-03T11:50:17;100799.00;;;35.88;27.89
14612;BME280;7392;52.078;11.650;2022-08-03T11:52:48;100802.25;;;35.83;26.45
14612;BME280;7392;52.078;11.650;2022-08-03T11:55:17;100808.00;;;35.64;26.47
14612;BME280;7392;52.078;11.650;2022-08-03T11:57:49;100807.13;;;35.55;26.52
14612;BME280;7392;52.078;11.650;2022-08-03T12:00:37;100805.13;;;35.39;26.88
14612;BME280;7392;52.078;11.650;2022-08-03T12:03:07;100800.88;;;35.53;27.03
14612;BME280;7392;52.078;11.650;2022-08-03T12:05:46;100798.47;;;35.84;27.71
14612;BME280;7392;52.078;11.650;2022-08-03T12:08:29;100790.94;;;36.19;28.09
14612;BME280;7392;52.078;11.650;2022-08-03T12:10:59;100786.88;;;36.56;27.89
14612;BME280;7392;52.078;11.650;2022-08-03T12:13:37;100785.84;;;36.74;26.22
14612;BME280;7392;52.078;11.650;2022-08-03T12:16:25;100787.38;;;36.93;26.20
14612;BME280;7392;52.078;11.650;2022-08-03T12:18:55;100800.47;;;37.15;26.49
14612;BME280;7392;52.078;11.650;2022-08-03T12:21:23;100789.06;;;37.27;25.53
14612;BME280;7392;52.078;11.650;2022-08-03T12:23:55;100785.47;;;37.18;24.81
14612;BME280;7392;52.078;11.650;2022-08-03T12:26:27;100785.63;;;37.08;24.86
14612;BME280;7392;52.078;11.650;2022-08-03T12:28:56;100786.66;;;37.15;24.70
14612;BME280;7392;52.078;11.650;2022-08-03T12:31:24;100793.25;;;37.14;24.87
14612;BME280;7392;52.078;11.650;2022-08-03T12:34:00;100777.31;;;37.08;25.13
14612;BME280;7392;52.078;11.650;2022-08-03T12:36:31;100783.88;;;37.15;24.79
14612;BME280;7392;52.078;11.650;2022-08-03T12:39:00;100779.41;;;37.22;24.61
14612;BME280;7392;52.078;11.650;2022-08-03T12:41:31;100766.16;;;37.49;24.62
14612;BME280;7392;52.078;11.650;2022-08-03T12:44:01;100774.25;;;37.67;24.49
14612;BME280;7392;52.078;11.650;2022-08-03T12:46:31;100768.88;;;37.74;24.08
14612;BME280;7392;52.078;11.650;2022-08-03T12:49:05;100767.31;;;37.71;23.91
14612;BME280;7392;52.078;11.650;2022-08-03T12:51:35;100766.91;;;37.83;23.30
14612;BME280;7392;52.078;11.650;2022-08-03T12:54:04;100761.81;;;37.94;23.65
14612;BME280;7392;52.078;11.650;2022-08-03T12:56:32;100759.78;;;38.20;23.87
14612;BME280;7392;52.078;11.650;2022-08-03T12:59:26;100762.34;;;38.44;23.15
14612;BME280;7392;52.078;11.650;2022-08-03T13:02:01;100757.38;;;38.63;23.21
14612;BME280;7392;52.078;11.650;2022-08-03T13:04:35;100757.78;;;38.89;23.06
14612;BME280;7392;52.078;11.650;2022-08-03T13:07:04;100755.13;;;38.96;22.69
14612;BME280;7392;52.078;11.650;2022-08-03T13:09:41;100752.53;;;38.95;21.90
14612;BME280;7392;52.078;11.650;2022-08-03T13:12:10;100756.47;;;38.85;22.08
14612;BME280;7392;52.078;11.650;2022-08-03T13:14:41;100756.91;;;38.74;22.23
14612;BME280;7392;52.078;11.650;2022-08-03T13:17:09;100756.19;;;38.95;22.88
14612;BME280;7392;52.078;11.650;2022-08-03T13:19:38;100741.88;;;39.21;22.67